Terminal Aerodrome Forecast
Issued by NWS

Current Version | Previous Version | Graphics & Text | Print | Product List | Glossary On
Versions: 1 2 3 4 5 6 7 8 9 10 11 12 13 14 15 16 17 18
290
FTUS41 KPBZ 032320
TAFMGW
TAF
KMGW 032320Z 0400/0424 36004KT P6SM OVC029
     FM041200 VRB03KT P6SM OVC035
     FM041600 11004KT P6SM BKN090=

USA.gov is the U.S. government's official web portal to all federal, state and local government web resources and services.